createdAt,value
2017-05-18T00:00:24.569Z,99.99
2017-05-18T00:01:34.518Z,99.99
2017-05-18T00:02:44.786Z,99.99
2017-05-18T00:03:55.050Z,99.99
2017-05-18T00:05:05.322Z,99.99
2017-05-18T00:06:15.272Z,99.99
2017-05-18T00:07:25.532Z,99.99
2017-05-18T00:08:35.801Z,99.99
2017-05-18T00:09:45.757Z,99.99
2017-05-18T00:10:56.019Z,99.99
2017-05-18T00:12:06.284Z,99.99
2017-05-18T00:13:16.550Z,99.99
2017-05-18T00:14:26.499Z,99.99
2017-05-18T00:15:36.448Z,99.99
2017-05-18T00:16:46.712Z,99.99
2017-05-18T00:17:56.972Z,99.99
2017-05-18T00:19:06.928Z,99.99
2017-05-18T00:20:17.192Z,99.99
2017-05-18T00:21:27.458Z,99.99
2017-05-18T00:22:37.729Z,99.99
2017-05-18T00:23:47.679Z,99.99
2017-05-18T00:24:57.947Z,99.99
2017-05-18T00:26:08.211Z,99.99
2017-05-18T00:27:18.474Z,99.99
2017-05-18T00:28:28.474Z,99.99
2017-05-18T00:29:38.736Z,99.99
2017-05-18T00:30:49.003Z,99.99
2017-05-18T00:31:59.268Z,99.99
2017-05-18T00:33:09.532Z,99.99
2017-05-18T00:34:19.803Z,99.99
2017-05-18T00:35:30.063Z,99.99
2017-05-18T00:36:40.322Z,99.99
2017-05-18T00:37:50.605Z,99.99
2017-05-18T00:39:00.878Z,99.99
2017-05-18T00:40:10.830Z,99.99
2017-05-18T00:41:21.093Z,99.99
2017-05-18T00:42:31.352Z,99.99
2017-05-18T00:43:41.619Z,99.99
2017-05-18T00:44:51.877Z,99.99
2017-05-18T00:46:02.144Z,99.99
2017-05-18T00:47:12.405Z,99.99
2017-05-18T00:48:22.353Z,99.99
2017-05-18T00:49:32.629Z,99.99
2017-05-18T00:50:42.907Z,99.99
2017-05-18T00:51:53.167Z,99.99
2017-05-18T00:53:03.430Z,99.99
2017-05-18T00:54:13.699Z,99.99
2017-05-18T00:55:23.645Z,99.99
2017-05-18T00:56:33.591Z,99.99
2017-05-18T00:57:43.884Z,99.99
2017-05-18T00:58:54.141Z,99.99
2017-05-18T01:00:04.095Z,99.99
2017-05-18T01:01:14.356Z,99.99
2017-05-18T01:02:23.999Z,99.99
2017-05-18T01:03:34.268Z,99.99
2017-05-18T01:04:44.538Z,99.99
2017-05-18T01:05:54.810Z,99.99
2017-05-18T01:07:05.074Z,99.99
2017-05-18T01:08:15.342Z,99.99
2017-05-18T01:09:25.298Z,99.99
2017-05-18T01:10:35.255Z,99.99
2017-05-18T01:11:45.513Z,99.99
2017-05-18T01:12:55.778Z,99.99
2017-05-18T01:14:05.738Z,99.99
2017-05-18T01:15:15.694Z,99.99
2017-05-18T01:16:25.953Z,99.99
2017-05-18T01:17:36.220Z,99.99
2017-05-18T01:18:46.183Z,99.99
2017-05-18T01:19:56.447Z,99.99
2017-05-18T01:21:06.719Z,99.99
2017-05-18T01:22:16.677Z,99.99
2017-05-18T01:23:26.633Z,99.99
2017-05-18T01:24:36.587Z,99.99
2017-05-18T01:25:46.906Z,99.99
2017-05-18T01:26:57.173Z,99.99
2017-05-18T01:28:07.437Z,99.99
2017-05-18T01:29:17.704Z,99.99
2017-05-18T01:30:27.977Z,99.99
2017-05-18T01:31:37.926Z,99.99
2017-05-18T01:32:48.189Z,99.99
2017-05-18T01:33:58.470Z,99.99
2017-05-18T01:35:08.741Z,99.99
2017-05-18T01:36:18.694Z,99.99
2017-05-18T01:37:29.167Z,99.99
2017-05-18T01:38:39.434Z,99.99
2017-05-18T01:39:49.703Z,99.99
2017-05-18T01:40:59.970Z,99.99
2017-05-18T01:42:10.234Z,99.99
2017-05-18T01:43:20.184Z,99.99
2017-05-18T01:44:30.470Z,99.99
2017-05-18T01:45:40.733Z,99.99
2017-05-18T01:46:50.692Z,99.99
2017-05-18T01:48:00.642Z,99.99
2017-05-18T01:49:10.918Z,99.99
2017-05-18T01:50:21.181Z,99.99
2017-05-18T01:51:31.129Z,99.99
2017-05-18T01:52:41.407Z,99.99
2017-05-18T01:53:51.358Z,99.99
2017-05-18T01:55:01.622Z,99.99
2017-05-18T01:56:11.889Z,99.99
2017-05-18T01:57:21.846Z,99.99
2017-05-18T01:58:32.111Z,99.99
2017-05-18T01:59:42.113Z,99.99
2017-05-18T02:00:52.381Z,99.99
2017-05-18T02:02:02.651Z,99.99
2017-05-18T02:03:12.610Z,99.99
2017-05-18T02:04:22.884Z,99.99
2017-05-18T02:05:33.156Z,99.99
2017-05-18T02:06:43.158Z,99.99
2017-05-18T02:07:53.421Z,99.99
2017-05-18T02:09:03.691Z,99.99
2017-05-18T02:10:13.962Z,99.99
2017-05-18T02:11:23.964Z,99.99
2017-05-18T02:12:34.230Z,99.99
2017-05-18T02:13:44.500Z,99.99
2017-05-18T02:14:54.767Z,99.99
2017-05-18T02:16:04.715Z,99.99
2017-05-18T02:17:14.980Z,99.99
2017-05-18T02:18:24.931Z,99.99
2017-05-18T02:19:35.202Z,99.99
2017-05-18T02:20:45.473Z,99.99
2017-05-18T02:21:55.734Z,99.99
2017-05-18T02:23:06.021Z,99.99
2017-05-18T02:24:15.974Z,99.99
2017-05-18T02:25:26.245Z,99.99
2017-05-18T02:26:36.513Z,99.99
2017-05-18T02:27:46.786Z,99.99
2017-05-18T02:28:57.057Z,99.99
2017-05-18T02:30:07.338Z,99.99
2017-05-18T02:31:17.615Z,99.99
2017-05-18T02:32:27.884Z,99.99
2017-05-18T02:33:38.147Z,99.99
2017-05-18T02:34:48.103Z,99.99
2017-05-18T02:35:58.365Z,99.99
2017-05-18T02:37:08.314Z,99.99
2017-05-18T02:38:17.950Z,99.99
2017-05-18T02:39:28.216Z,99.99
2017-05-18T02:40:38.175Z,99.99
2017-05-18T02:41:48.448Z,99.99
2017-05-18T02:42:58.402Z,99.99
2017-05-18T02:44:08.677Z,99.99
2017-05-18T02:45:18.946Z,99.99
2017-05-18T02:46:29.207Z,99.99
2017-05-18T02:47:39.477Z,99.99
2017-05-18T02:48:49.740Z,99.99
2017-05-18T02:49:59.711Z,99.99
2017-05-18T02:51:09.980Z,99.99
2017-05-18T02:52:19.928Z,99.99
2017-05-18T02:53:30.191Z,99.99
2017-05-18T02:54:40.463Z,99.99
2017-05-18T02:55:50.421Z,99.99
2017-05-18T02:57:00.691Z,99.99
2017-05-18T02:58:10.642Z,99.99
2017-05-18T02:59:20.274Z,99.99
2017-05-18T03:00:30.538Z,99.99
2017-05-18T03:01:40.796Z,99.99
2017-05-18T03:02:51.067Z,99.99
2017-05-18T03:04:01.336Z,99.99
2017-05-18T03:05:11.602Z,99.99
2017-05-18T03:06:21.869Z,99.99
2017-05-18T03:07:32.141Z,99.99
2017-05-18T03:08:42.089Z,99.99
2017-05-18T03:09:52.365Z,99.99
2017-05-18T03:11:02.631Z,99.99
2017-05-18T03:12:12.901Z,99.99
2017-05-18T03:13:23.168Z,99.99
2017-05-18T03:14:33.431Z,99.99
2017-05-18T03:15:43.691Z,99.99
2017-05-18T03:16:53.955Z,99.99
2017-05-18T03:18:03.903Z,99.99
2017-05-18T03:19:14.169Z,99.99
2017-05-18T03:20:24.126Z,99.99
2017-05-18T03:21:34.382Z,99.99
2017-05-18T03:22:44.644Z,99.99
2017-05-18T03:23:54.926Z,99.99
2017-05-18T03:25:05.197Z,99.99
2017-05-18T03:26:15.460Z,99.99
2017-05-18T03:27:25.113Z,99.99
2017-05-18T03:28:35.378Z,99.99
2017-05-18T03:29:45.649Z,99.99
2017-05-18T03:30:55.913Z,99.99
2017-05-18T03:32:05.861Z,99.99
2017-05-18T03:33:16.122Z,99.99
2017-05-18T03:34:26.072Z,99.99
2017-05-18T03:35:36.343Z,99.99
2017-05-18T03:36:46.614Z,99.99
2017-05-18T03:37:56.880Z,99.99
2017-05-18T03:39:07.151Z,99.99
2017-05-18T03:40:17.413Z,99.99
2017-05-18T03:41:27.683Z,99.99
2017-05-18T03:42:37.945Z,99.99
2017-05-18T03:43:48.212Z,99.99
2017-05-18T03:44:58.482Z,99.99
2017-05-18T03:46:08.746Z,99.99
2017-05-18T03:47:18.723Z,99.99
2017-05-18T03:48:28.667Z,99.99
2017-05-18T03:49:38.610Z,99.99
2017-05-18T03:50:48.870Z,99.99
2017-05-18T03:51:59.139Z,99.99
2017-05-18T03:53:09.408Z,99.99
2017-05-18T03:54:19.675Z,99.99
2017-05-18T03:55:29.941Z,99.99
2017-05-18T03:56:40.203Z,99.99
2017-05-18T03:57:50.473Z,99.99
2017-05-18T03:59:00.737Z,99.99
2017-05-18T04:00:11.003Z,99.99
2017-05-18T04:01:20.956Z,99.99
2017-05-18T04:02:30.905Z,99.99
2017-05-18T04:03:41.174Z,99.99
2017-05-18T04:04:51.436Z,99.99
2017-05-18T04:06:01.704Z,99.99
2017-05-18T04:07:11.974Z,99.99
2017-05-18T04:08:22.242Z,99.99
2017-05-18T04:09:32.520Z,99.99
2017-05-18T04:10:42.467Z,99.99
2017-05-18T04:11:52.729Z,99.99
2017-05-18T04:13:02.996Z,99.99
2017-05-18T04:14:13.261Z,99.99
2017-05-18T04:15:23.211Z,99.99
2017-05-18T04:16:33.475Z,99.99
2017-05-18T04:17:43.749Z,99.99
2017-05-18T04:18:54.020Z,99.99
2017-05-18T04:20:04.287Z,99.99
2017-05-18T04:21:14.553Z,99.99
2017-05-18T04:22:24.820Z,99.99
2017-05-18T04:23:35.083Z,99.99
2017-05-18T04:24:45.355Z,99.99
2017-05-18T04:25:55.615Z,99.99
2017-05-18T04:27:05.881Z,99.99
2017-05-18T04:28:16.149Z,99.99
2017-05-18T04:29:26.418Z,99.99
2017-05-18T04:30:36.682Z,99.99
2017-05-18T04:31:46.947Z,99.99
2017-05-18T04:32:57.213Z,99.99
2017-05-18T04:34:07.485Z,99.99
2017-05-18T04:35:17.749Z,99.99
2017-05-18T04:36:28.016Z,99.99
2017-05-18T04:37:38.282Z,99.99
2017-05-18T04:38:48.551Z,99.99
2017-05-18T04:39:58.502Z,99.99
2017-05-18T04:41:08.779Z,99.99
2017-05-18T04:42:19.044Z,99.99
2017-05-18T04:43:29.711Z,99.99
2017-05-18T04:44:40.004Z,99.99
2017-05-18T04:45:50.274Z,99.99
2017-05-18T04:47:00.533Z,99.99
2017-05-18T04:48:10.490Z,99.99
2017-05-18T04:49:20.754Z,99.99
2017-05-18T04:50:30.718Z,99.99
2017-05-18T04:51:40.666Z,99.99
2017-05-18T04:52:50.927Z,99.99
2017-05-18T04:54:01.195Z,99.99
2017-05-18T04:55:11.467Z,99.99
2017-05-18T04:56:21.725Z,99.99
2017-05-18T04:57:31.991Z,99.99
2017-05-18T04:58:42.264Z,99.99
2017-05-18T04:59:52.228Z,99.99
2017-05-18T05:01:02.491Z,99.99
2017-05-18T05:02:12.449Z,99.99
2017-05-18T05:03:22.714Z,99.99
2017-05-18T05:04:32.979Z,99.99
2017-05-18T05:05:42.819Z,99.99
2017-05-18T05:06:53.080Z,99.99
2017-05-18T05:08:03.348Z,99.99
2017-05-18T05:09:13.612Z,99.99
2017-05-18T05:10:24.258Z,99.99
2017-05-18T05:11:34.523Z,99.99
2017-05-18T05:12:44.786Z,99.99
2017-05-18T05:13:55.051Z,99.99
2017-05-18T05:15:05.000Z,99.99
2017-05-18T05:16:15.260Z,99.99
2017-05-18T05:17:25.222Z,99.99
2017-05-18T05:18:35.486Z,99.99
2017-05-18T05:19:45.444Z,99.99
2017-05-18T05:20:55.715Z,99.99
2017-05-18T05:22:05.689Z,99.99
2017-05-18T05:23:15.643Z,99.99
2017-05-18T05:24:25.905Z,99.99
2017-05-18T05:25:36.171Z,99.99
2017-05-18T05:26:46.436Z,99.99
2017-05-18T05:27:56.916Z,99.99
2017-05-18T05:29:07.068Z,99.99
2017-05-18T05:30:17.334Z,99.99
2017-05-18T05:31:27.597Z,99.99
2017-05-18T05:32:37.869Z,99.99
2017-05-18T05:33:48.137Z,99.99
2017-05-18T05:34:58.407Z,99.99
2017-05-18T05:36:08.358Z,99.99
2017-05-18T05:37:18.633Z,99.99
2017-05-18T05:38:28.582Z,99.99
2017-05-18T05:39:38.534Z,99.99
2017-05-18T05:40:48.794Z,99.99
2017-05-18T05:41:59.056Z,99.99
2017-05-18T05:43:09.321Z,99.99
2017-05-18T05:44:19.583Z,99.99
2017-05-18T05:45:29.850Z,99.99
2017-05-18T05:46:40.114Z,99.99
2017-05-18T05:47:49.755Z,99.99
2017-05-18T05:49:00.026Z,99.99
2017-05-18T05:50:10.292Z,99.99
2017-05-18T05:51:20.258Z,99.99
2017-05-18T05:52:29.960Z,99.99
2017-05-18T05:53:40.230Z,99.99
2017-05-18T05:54:50.499Z,99.99
2017-05-18T05:56:00.768Z,99.99
2017-05-18T05:57:10.408Z,99.99
2017-05-18T05:58:20.666Z,99.99
2017-05-18T05:59:30.939Z,99.99
2017-05-18T06:00:41.204Z,99.99
2017-05-18T06:01:51.466Z,99.99
2017-05-18T06:03:01.733Z,99.99
2017-05-18T06:04:12.004Z,99.99
2017-05-18T06:05:22.277Z,99.99
2017-05-18T06:06:32.543Z,99.99
2017-05-18T06:07:42.810Z,99.99
2017-05-18T06:08:53.089Z,99.99
2017-05-18T06:10:03.366Z,99.99
2017-05-18T06:11:13.009Z,99.99
2017-05-18T06:12:23.265Z,99.99
2017-05-18T06:13:33.528Z,99.99
2017-05-18T06:14:43.479Z,99.99
2017-05-18T06:15:53.741Z,99.99
2017-05-18T06:17:04.006Z,99.99
2017-05-18T06:18:14.268Z,99.99
2017-05-18T06:19:24.223Z,99.99
2017-05-18T06:20:34.492Z,99.99
2017-05-18T06:21:44.760Z,99.99
2017-05-18T06:22:55.021Z,99.99
2017-05-18T06:24:04.969Z,99.99
2017-05-18T06:25:15.233Z,99.99
2017-05-18T06:26:25.501Z,99.99
2017-05-18T06:27:35.761Z,99.99
2017-05-18T06:28:45.717Z,99.99
2017-05-18T06:29:56.021Z,99.99
2017-05-18T06:31:05.976Z,99.99
2017-05-18T06:32:16.243Z,99.99
2017-05-18T06:33:26.710Z,99.99
2017-05-18T06:34:36.978Z,99.99
2017-05-18T06:35:46.939Z,99.99
2017-05-18T06:36:57.206Z,99.99
2017-05-18T06:38:07.539Z,99.99
2017-05-18T06:39:17.491Z,99.99
2017-05-18T06:40:27.761Z,99.99
2017-05-18T06:41:38.022Z,99.99
2017-05-18T06:42:48.288Z,99.99
2017-05-18T06:43:58.557Z,99.99
2017-05-18T06:45:09.032Z,99.99
2017-05-18T06:46:18.350Z,99.99
2017-05-18T06:47:28.308Z,99.99
2017-05-18T06:48:38.266Z,99.99
2017-05-18T06:49:48.541Z,99.99
2017-05-18T06:50:58.801Z,99.99
2017-05-18T06:52:08.752Z,99.99
2017-05-18T06:53:18.399Z,99.99
2017-05-18T06:54:28.688Z,99.99
2017-05-18T06:55:38.957Z,99.99
2017-05-18T06:56:49.228Z,99.99
2017-05-18T06:57:59.502Z,99.99
2017-05-18T06:59:09.773Z,99.99
2017-05-18T07:00:20.034Z,99.99
2017-05-18T07:01:30.295Z,99.99
2017-05-18T07:02:40.566Z,99.99
2017-05-18T07:03:50.844Z,99.99
2017-05-18T07:05:00.800Z,99.99
2017-05-18T07:06:10.439Z,99.99
2017-05-18T07:07:20.705Z,99.99
2017-05-18T07:08:30.966Z,99.99
2017-05-18T07:09:41.233Z,99.99
2017-05-18T07:10:51.537Z,99.99
2017-05-18T07:12:01.803Z,99.99
2017-05-18T07:13:11.442Z,99.99
2017-05-18T07:14:21.082Z,99.99
2017-05-18T07:15:31.354Z,99.99
2017-05-18T07:16:41.614Z,99.99
2017-05-18T07:17:51.902Z,99.99
2017-05-18T07:19:02.168Z,99.99
2017-05-18T07:20:12.426Z,99.99
2017-05-18T07:21:22.580Z,99.99
2017-05-18T07:22:32.530Z,99.99
2017-05-18T07:23:42.805Z,99.99
2017-05-18T07:24:53.070Z,99.99
2017-05-18T07:26:03.344Z,99.99
2017-05-18T07:27:13.376Z,99.99
2017-05-18T07:28:23.867Z,99.99
2017-05-18T07:29:34.138Z,99.99
2017-05-18T07:30:44.407Z,99.99
2017-05-18T07:31:54.683Z,99.99
2017-05-18T07:33:04.975Z,99.99
2017-05-18T07:34:15.239Z,99.99
2017-05-18T07:35:25.509Z,99.99
2017-05-18T07:36:35.772Z,99.99
2017-05-18T07:37:46.089Z,99.99
2017-05-18T07:38:56.055Z,99.99
2017-05-18T07:40:06.349Z,99.99
2017-05-18T07:41:15.988Z,99.99
2017-05-18T07:42:25.628Z,99.99
2017-05-18T07:43:35.583Z,99.99
2017-05-18T07:44:45.220Z,99.99
2017-05-18T07:45:55.491Z,99.99
2017-05-18T07:47:05.447Z,99.99
2017-05-18T07:48:15.399Z,99.99
2017-05-18T07:49:25.348Z,99.99
2017-05-18T07:50:36.004Z,99.99
2017-05-18T07:51:46.470Z,99.99
2017-05-18T07:52:56.425Z,99.99
2017-05-18T07:54:06.688Z,99.99
2017-05-18T07:55:16.014Z,99.99
2017-05-18T07:56:25.963Z,99.99
2017-05-18T07:57:36.232Z,99.99
2017-05-18T07:58:46.500Z,99.99
2017-05-18T07:59:56.455Z,99.99
2017-05-18T08:01:06.725Z,99.99
2017-05-18T08:02:16.675Z,99.99
2017-05-18T08:03:26.630Z,99.99
2017-05-18T08:04:36.907Z,99.99
2017-05-18T08:05:47.172Z,99.99
2017-05-18T08:06:57.434Z,99.99
2017-05-18T08:08:07.384Z,99.99
2017-05-18T08:09:18.211Z,99.99
2017-05-18T08:10:27.854Z,99.99
2017-05-18T08:11:38.119Z,99.99
2017-05-18T08:12:48.382Z,99.99
2017-05-18T08:13:58.337Z,99.99
2017-05-18T08:15:07.972Z,99.99
2017-05-18T08:16:17.610Z,99.99
2017-05-18T08:17:27.877Z,99.99
2017-05-18T08:18:38.365Z,99.99
2017-05-18T08:19:48.322Z,99.99
2017-05-18T08:20:58.276Z,99.99
2017-05-18T08:22:08.233Z,99.99
2017-05-18T08:23:17.558Z,99.99
2017-05-18T08:24:27.191Z,99.99
2017-05-18T08:25:37.136Z,99.99
2017-05-18T08:26:47.410Z,99.99
2017-05-18T08:27:57.678Z,99.99
2017-05-18T08:29:07.631Z,99.99
2017-05-18T08:30:17.897Z,99.99
2017-05-18T08:31:28.163Z,99.99
2017-05-18T08:32:38.132Z,99.99
2017-05-18T08:33:48.399Z,99.99
2017-05-18T08:34:58.357Z,99.99
2017-05-18T08:36:08.308Z,99.99
2017-05-18T08:37:18.260Z,99.99
2017-05-18T08:38:28.614Z,99.99
2017-05-18T08:39:38.251Z,99.99
2017-05-18T08:40:48.520Z,99.99
2017-05-18T08:41:58.789Z,99.99
2017-05-18T08:43:09.050Z,99.99
2017-05-18T08:44:19.003Z,99.99
2017-05-18T08:45:29.274Z,99.99
2017-05-18T08:46:39.539Z,99.99
2017-05-18T08:47:49.802Z,99.99
2017-05-18T08:48:59.763Z,99.99
2017-05-18T08:50:09.730Z,99.99
2017-05-18T08:51:19.677Z,99.99
2017-05-18T08:52:29.632Z,99.99
2017-05-18T08:53:39.587Z,99.99
2017-05-18T08:54:49.858Z,99.99
2017-05-18T08:56:00.127Z,99.99
2017-05-18T08:57:09.762Z,99.99
2017-05-18T08:58:19.714Z,99.99
2017-05-18T08:59:29.679Z,99.99
2017-05-18T09:00:39.007Z,99.99
2017-05-18T09:01:49.276Z,99.99
2017-05-18T09:02:59.548Z,99.99
2017-05-18T09:04:09.826Z,99.99
2017-05-18T09:05:19.776Z,99.99
2017-05-18T09:06:30.041Z,99.99
2017-05-18T09:07:40.315Z,99.99
2017-05-18T09:08:50.309Z,99.99
2017-05-18T09:10:00.256Z,99.99
2017-05-18T09:11:09.582Z,99.99
2017-05-18T09:12:19.543Z,99.99
2017-05-18T09:13:29.807Z,99.99
2017-05-18T09:14:39.759Z,99.99
2017-05-18T09:15:50.031Z,99.99
2017-05-18T09:17:00.294Z,99.99
2017-05-18T09:18:10.560Z,99.99
2017-05-18T09:19:20.510Z,99.99
2017-05-18T09:20:30.782Z,99.99
2017-05-18T09:21:40.736Z,99.99
2017-05-18T09:22:50.999Z,99.99
2017-05-18T09:24:00.954Z,99.99
2017-05-18T09:25:10.915Z,99.99
2017-05-18T09:26:20.874Z,99.99
2017-05-18T09:27:30.833Z,99.99
2017-05-18T09:28:41.097Z,99.99
2017-05-18T09:29:51.054Z,99.99
2017-05-18T09:31:01.326Z,99.99
2017-05-18T09:32:11.283Z,99.99
2017-05-18T09:33:21.554Z,99.99
2017-05-18T09:34:31.544Z,99.99
2017-05-18T09:35:41.504Z,99.99
2017-05-18T09:36:51.458Z,99.99
2017-05-18T09:38:01.770Z,99.99
2017-05-18T09:39:12.042Z,99.99
2017-05-18T09:40:22.316Z,99.99
2017-05-18T09:41:32.588Z,99.99
2017-05-18T09:42:42.544Z,99.99
2017-05-18T09:43:52.507Z,99.99
2017-05-18T09:45:02.469Z,99.99
2017-05-18T09:46:12.743Z,99.99
2017-05-18T09:47:23.012Z,99.99
2017-05-18T09:48:33.292Z,99.99
2017-05-18T09:49:43.245Z,99.99
2017-05-18T09:50:53.518Z,99.99
2017-05-18T09:52:03.482Z,99.99
2017-05-18T09:53:13.439Z,99.99
2017-05-18T09:54:23.398Z,99.99
2017-05-18T09:55:33.673Z,99.99
2017-05-18T09:56:43.937Z,99.99
2017-05-18T09:57:54.199Z,99.99
2017-05-18T09:59:04.474Z,99.99
2017-05-18T10:00:14.745Z,99.99
2017-05-18T10:01:25.044Z,99.99
2017-05-18T10:02:35.317Z,99.99
2017-05-18T10:03:45.590Z,99.99
2017-05-18T10:04:55.862Z,99.99
2017-05-18T10:06:06.037Z,99.99
2017-05-18T10:07:15.995Z,99.99
2017-05-18T10:08:26.266Z,99.99
2017-05-18T10:09:36.535Z,99.99
2017-05-18T10:10:46.864Z,99.99
2017-05-18T10:11:57.127Z,99.99
2017-05-18T10:13:07.402Z,99.99
2017-05-18T10:14:17.675Z,99.99
2017-05-18T10:15:27.310Z,99.99
2017-05-18T10:16:37.575Z,99.99
2017-05-18T10:17:47.842Z,99.99
2017-05-18T10:18:58.115Z,99.99
2017-05-18T10:20:08.078Z,99.99
2017-05-18T10:21:18.027Z,99.99
2017-05-18T10:22:27.983Z,99.99
2017-05-18T10:23:38.264Z,99.99
2017-05-18T10:24:48.532Z,99.99
2017-05-18T10:25:58.485Z,99.99
2017-05-18T10:27:08.753Z,99.99
2017-05-18T10:28:18.703Z,99.99
2017-05-18T10:29:28.665Z,99.99
2017-05-18T10:30:38.937Z,99.99
2017-05-18T10:31:49.205Z,99.99
2017-05-18T10:32:59.471Z,99.99
2017-05-18T10:34:09.423Z,99.99
2017-05-18T10:35:19.070Z,99.99
2017-05-18T10:36:29.606Z,99.99
2017-05-18T10:37:39.883Z,99.99
2017-05-18T10:38:49.837Z,99.99
2017-05-18T10:40:00.113Z,99.99
2017-05-18T10:41:09.765Z,99.99
2017-05-18T10:42:19.409Z,99.99
2017-05-18T10:43:29.050Z,99.99
2017-05-18T10:44:39.321Z,99.99
2017-05-18T10:45:49.597Z,99.99
2017-05-18T10:47:00.087Z,99.99
2017-05-18T10:48:10.354Z,99.99
2017-05-18T10:49:20.618Z,99.99
2017-05-18T10:50:30.577Z,99.99
2017-05-18T10:51:40.224Z,99.99
2017-05-18T10:52:50.534Z,99.99
2017-05-18T10:54:00.809Z,99.99
2017-05-18T10:55:11.076Z,99.99
2017-05-18T10:56:20.715Z,99.99
2017-05-18T10:57:30.982Z,99.99
2017-05-18T10:58:41.466Z,99.99
2017-05-18T10:59:51.736Z,99.99
2017-05-18T11:01:02.007Z,99.99
2017-05-18T11:02:12.278Z,99.99
2017-05-18T11:03:22.547Z,99.99
2017-05-18T11:04:32.810Z,99.99
2017-05-18T11:05:42.767Z,99.99
2017-05-18T11:06:53.036Z,99.99
2017-05-18T11:08:03.001Z,99.99
2017-05-18T11:09:13.274Z,99.99
2017-05-18T11:10:23.557Z,99.99
2017-05-18T11:11:33.511Z,99.99
2017-05-18T11:12:43.477Z,99.99
2017-05-18T11:13:53.434Z,99.99
2017-05-18T11:15:03.703Z,99.99
2017-05-18T11:16:14.018Z,99.99
2017-05-18T11:17:24.293Z,99.99
2017-05-18T11:18:34.585Z,99.99
2017-05-18T11:19:44.854Z,99.99
2017-05-18T11:20:54.812Z,99.99
2017-05-18T11:22:05.079Z,99.99
2017-05-18T11:23:15.358Z,99.99
2017-05-18T11:24:25.317Z,99.99
2017-05-18T11:25:35.587Z,99.99
2017-05-18T11:26:45.857Z,99.99
2017-05-18T11:27:56.125Z,99.99
2017-05-18T11:29:06.085Z,99.99
2017-05-18T11:30:16.042Z,99.99
2017-05-18T11:31:25.993Z,99.99
2017-05-18T11:32:36.642Z,99.99
2017-05-18T11:33:46.789Z,99.99
2017-05-18T11:34:57.122Z,99.99
2017-05-18T11:36:07.403Z,99.99
2017-05-18T11:37:17.356Z,99.99
2017-05-18T11:38:27.631Z,99.99
2017-05-18T11:39:37.897Z,99.99
2017-05-18T11:40:47.852Z,99.99
2017-05-18T11:41:58.120Z,99.99
2017-05-18T11:43:08.075Z,99.99
2017-05-18T11:44:18.344Z,99.99
2017-05-18T11:45:30.614Z,99.99
2017-05-18T11:46:40.574Z,99.99
2017-05-18T11:47:50.843Z,99.99
2017-05-18T11:49:00.176Z,99.99
2017-05-18T11:50:09.818Z,99.99
2017-05-18T11:51:20.079Z,99.99
2017-05-18T11:52:30.349Z,99.99
2017-05-18T11:53:39.676Z,99.99
2017-05-18T11:54:49.949Z,99.99
2017-05-18T11:55:59.901Z,99.99
2017-05-18T11:57:09.854Z,99.99
2017-05-18T11:58:19.804Z,99.99
2017-05-18T11:59:30.126Z,99.99
2017-05-18T12:00:40.089Z,99.99
2017-05-18T12:01:50.356Z,99.99
2017-05-18T12:03:00.625Z,99.99
2017-05-18T12:04:10.582Z,99.99
2017-05-18T12:05:20.854Z,99.99
2017-05-18T12:06:31.321Z,99.99
2017-05-18T12:07:41.587Z,99.99
2017-05-18T12:08:51.229Z,99.99
2017-05-18T12:10:01.498Z,99.99
2017-05-18T12:11:11.458Z,99.99
2017-05-18T12:12:21.414Z,98.81
2017-05-18T12:13:31.679Z,98.14
2017-05-18T12:14:41.635Z,98.19
2017-05-18T12:15:51.903Z,97.04
2017-05-18T12:17:01.855Z,97.04
2017-05-18T12:18:11.808Z,95.51
2017-05-18T12:19:21.762Z,94.07
2017-05-18T12:20:31.714Z,94.69
2017-05-18T12:21:41.981Z,94.89
2017-05-18T12:22:51.937Z,93.35
2017-05-18T12:24:01.576Z,92.3
2017-05-18T12:25:11.216Z,91.34
2017-05-18T12:26:21.175Z,91.24
2017-05-18T12:27:31.444Z,91.34
2017-05-18T12:28:41.712Z,90.86
2017-05-18T12:29:51.979Z,91.28
2017-05-18T12:31:01.937Z,92.39
2017-05-18T12:32:12.215Z,92.24
2017-05-18T12:33:22.171Z,91.67
2017-05-18T12:34:32.437Z,92.44
2017-05-18T12:35:42.394Z,93.35
2017-05-18T12:36:52.667Z,93.3
2017-05-18T12:38:02.935Z,93.06
2017-05-18T12:39:12.886Z,93.01
2017-05-18T12:40:22.835Z,92.82
2017-05-18T12:41:33.107Z,93.21
2017-05-18T12:42:43.569Z,93.4
2017-05-18T12:43:53.839Z,93.21
2017-05-18T12:45:04.109Z,93.97
2017-05-18T12:46:14.379Z,92.91
2017-05-18T12:47:24.643Z,92.34
2017-05-18T12:48:34.963Z,92.24
2017-05-18T12:49:45.242Z,91.38
2017-05-18T12:50:55.193Z,92.24
2017-05-18T12:52:05.463Z,92.82
2017-05-18T12:53:15.734Z,92.72
2017-05-18T12:54:25.999Z,91.96
2017-05-18T12:55:35.954Z,92.63
2017-05-18T12:56:46.214Z,93.59
2017-05-18T12:57:56.482Z,92.44
2017-05-18T12:59:06.757Z,91.28
2017-05-18T13:00:16.398Z,92.34
2017-05-18T13:01:26.664Z,92.91
2017-05-18T13:02:36.618Z,92.05
2017-05-18T13:03:46.890Z,91.28
2017-05-18T13:04:57.165Z,92.58
2017-05-18T13:06:07.440Z,92.91
2017-05-18T13:07:17.084Z,93.3
2017-05-18T13:08:27.036Z,93.49
2017-05-18T13:09:37.537Z,93.68
2017-05-18T13:10:47.806Z,94.12
2017-05-18T13:11:57.760Z,94.21
2017-05-18T13:13:08.030Z,94.5
2017-05-18T13:14:17.998Z,94.5
2017-05-18T13:15:27.956Z,94.5
2017-05-18T13:16:38.222Z,93.06
2017-05-18T13:17:48.182Z,93.63
2017-05-18T13:18:58.454Z,93.35
2017-05-18T13:20:08.727Z,93.73
2017-05-18T13:21:18.995Z,93.54
2017-05-18T13:22:29.263Z,93.73
2017-05-18T13:23:39.528Z,93.44
2017-05-18T13:24:49.795Z,93.73
2017-05-18T13:26:00.120Z,93.93
2017-05-18T13:27:10.391Z,93.54
2017-05-18T13:28:20.663Z,93.63
2017-05-18T13:29:30.624Z,93.83
2017-05-18T13:30:40.891Z,94.89
2017-05-18T13:31:51.156Z,94.79
2017-05-18T13:33:01.426Z,94.02
2017-05-18T13:34:11.691Z,94.69
2017-05-18T13:35:21.642Z,94.79
2017-05-18T13:36:31.905Z,94.89
2017-05-18T13:37:41.861Z,94.5
2017-05-18T13:38:52.131Z,94.5
2017-05-18T13:40:02.085Z,94.21
2017-05-18T13:41:12.358Z,94.21
2017-05-18T13:42:22.625Z,94.4
2017-05-18T13:43:32.899Z,94.59
2017-05-18T13:44:43.173Z,94.12
2017-05-18T13:45:53.138Z,93.54
2017-05-18T13:47:03.090Z,94.31
2017-05-18T13:48:12.731Z,93.63
2017-05-18T13:49:22.369Z,93.54
2017-05-18T13:50:32.325Z,94.02
2017-05-18T13:51:42.585Z,94.69
2017-05-18T13:52:52.852Z,94.59
2017-05-18T13:54:03.117Z,94.4
2017-05-18T13:55:13.376Z,94.31
2017-05-18T13:56:23.644Z,94.4
2017-05-18T13:57:33.909Z,93.63
2017-05-18T13:58:44.175Z,93.83
2017-05-18T13:59:54.445Z,94.12
2017-05-18T14:01:04.715Z,93.35
2017-05-18T14:02:14.978Z,93.83
2017-05-18T14:03:24.932Z,93.35
2017-05-18T14:04:34.887Z,93.93
2017-05-18T14:05:45.144Z,93.44
2017-05-18T14:06:55.412Z,94.12
2017-05-18T14:08:05.746Z,93.63
2017-05-18T14:09:15.383Z,94.31
2017-05-18T14:10:25.649Z,93.59
2017-05-18T14:11:35.602Z,94.12
2017-05-18T14:12:45.553Z,93.88
2017-05-18T14:13:55.876Z,93.69
2017-05-18T14:15:06.153Z,93.59
2017-05-18T14:16:16.112Z,94.07
2017-05-18T14:17:26.379Z,94.55
2017-05-18T14:18:36.652Z,93.78
2017-05-18T14:19:46.608Z,93.78
2017-05-18T14:20:56.910Z,93.88
2017-05-18T14:22:06.865Z,94.64
2017-05-18T14:23:16.812Z,94.17
2017-05-18T14:24:27.079Z,94.45
2017-05-18T14:25:37.030Z,94.02
2017-05-18T14:26:47.299Z,94.35
2017-05-18T14:27:57.254Z,94.55
2017-05-18T14:29:06.894Z,94.26
2017-05-18T14:30:16.846Z,95.12
2017-05-18T14:31:26.801Z,94.64
2017-05-18T14:32:36.756Z,94.74
2017-05-18T14:33:46.710Z,94.55
2017-05-18T14:34:56.981Z,94.84
2017-05-18T14:36:07.263Z,95.12
2017-05-18T14:37:17.213Z,95.03
2017-05-18T14:38:27.170Z,95.12
2017-05-18T14:39:37.437Z,95.31
2017-05-18T14:40:47.710Z,95.31
2017-05-18T14:41:57.973Z,95.22
2017-05-18T14:43:08.243Z,95.41
2017-05-18T14:44:17.892Z,95.41
2017-05-18T14:45:27.852Z,95.31
2017-05-18T14:46:38.127Z,94.93
2017-05-18T14:47:48.395Z,95.31
2017-05-18T14:48:58.671Z,95.51
2017-05-18T14:50:08.941Z,95.41
2017-05-18T14:51:18.900Z,95.12
2017-05-18T14:52:29.172Z,95.31
2017-05-18T14:53:39.502Z,95.03
2017-05-18T14:54:49.766Z,95.31
2017-05-18T14:56:00.040Z,95.31
2017-05-18T14:57:10.310Z,95.31
2017-05-18T14:58:20.641Z,95.98
2017-05-18T14:59:30.290Z,95.79
2017-05-18T15:00:40.555Z,95.79
2017-05-18T15:01:49.880Z,95.7
2017-05-18T15:03:00.154Z,95.6
2017-05-18T15:04:09.794Z,96.27